Aviation Digital Data Service (ADDS)

Output produced by METARs form (1928 UTC 27 May 2017)
found at http://aviationweather.gov/adds/metars/
 
KBDR 271737Z 2718/2818 15010KT P6SM BKN045 
     FM280000 15005KT P6SM BKN035 
     FM280700 13004KT P6SM BKN020 
     FM281300 14007KT P6SM SCT025 BKN035